Portada
METAR-TAF:

METAR-TAF

Aeropuertos :

Såtenäs, Suecia

latitud: 58-26N, longitud: 012-42E, altitud: 54 m

Observación

El informe se hizo hace 26 minutos, a las 04:20 UTC
Viento 5 kt del sur
Temperatura 1°C
Humedad 100%
Presión 1009 hPa
Visibilidad 10 km o más

METAR: ESIB 080420Z AUTO 17005KT 9999 NCD 01/01 Q1009

Hora: 06:46 (04:46 UTC)

Pronóstico

El informe se hizo hace 17 horas y 21 minutos, a las 11:25 UTC
Pronóstico válido del 07 a las 12 UTC al 07 a las 15 UTC
Viento 10 kt del noroeste
Visibilidad 10 km o más
sin nubes por debajo de 1500 m y sin presencia de cumulonimbus.
Temporalmente
del 07 a las 12 UTC al 07 a las 15 UTC
Visibilidad: 5000 m
Cielo nuboso a una altura de 2500 ft, Cumulus congestus.
chaparrones de lluvia

TAF: ESIB 071125Z 0712/0715 31010KT CAVOK TEMPO 0712/0715 5000 SHRA BKN025TCU RMK MIL

Observaciones y pronósticos meteorológicos de más de 4000 aeropuertos (mensajes METAR y TAF).

Los puntos amarillos y rojos representan las estaciones disponibles.

Ponga el ratón en el punto deseado para ver el nombre de la estación.

Haga clic para ver las observaciones y los pronósticos meteorológicos.

Para cambiar el mapa : haga clic en los botones verdes con una cruz de color negro para hacer un zoom, en el botón verde con un guión para alejar o en las flechas verdes para mapas adyacentes.


METAR-TAF: